Allock, Kentucky
Current Conditions -  °F | °C
As of 3:15 PM on Friday 28 Nov 2014 (Local Time) from KI35 Reporting Station
Clear Clear  
Wind Chill: 31°   Ceiling: Unl
Heat Index: 37°   Visibility: 10mi
Dew Point: 18°   Wind: 9mph
Humidity: 45%   Direction: 110°ESE
Pressure: 30.25"   Gusts: NA
Location:  37.1842°N, 83.1053°W
Report Text: KI35 282015Z AUTO 11008KT 10SM CLR 03/M08 A3025 RMK AO1
Loading
Personal Weather Stations






























Interactive Weather Map New forecast layout! Learn more

10-Day Weather Forecast

Advertisements
Track Severe Weather on mobile